createdAt,value
2022-11-27T00:01:19.694Z,84.94
2022-11-27T00:03:46.599Z,84.40
2022-11-27T00:06:13.762Z,84.62
2022-11-27T00:08:40.152Z,84.66
2022-11-27T00:11:11.766Z,84.73
2022-11-27T00:13:38.187Z,84.31
2022-11-27T00:16:04.870Z,84.44
2022-11-27T00:18:31.405Z,84.07
2022-11-27T00:21:02.228Z,84.27
2022-11-27T00:23:28.657Z,84.21
2022-11-27T00:25:55.131Z,84.73
2022-11-27T00:28:21.629Z,84.21
2022-11-27T00:30:48.124Z,84.29
2022-11-27T00:33:14.582Z,84.00
2022-11-27T00:35:42.322Z,84.52
2022-11-27T00:38:08.867Z,84.04
2022-11-27T00:40:35.657Z,84.04
2022-11-27T00:43:02.059Z,84.12
2022-11-27T00:45:28.637Z,84.26
2022-11-27T00:47:55.134Z,84.66
2022-11-27T00:50:21.763Z,84.48
2022-11-27T00:52:48.341Z,84.15
2022-11-27T00:55:14.942Z,84.58
2022-11-27T00:57:41.387Z,83.97
2022-11-27T01:00:08.129Z,84.25
2022-11-27T01:02:34.579Z,83.81
2022-11-27T01:05:01.033Z,83.94
2022-11-27T01:07:27.720Z,83.99
2022-11-27T01:09:54.239Z,83.94
2022-11-27T01:12:20.825Z,84.08
2022-11-27T01:14:47.235Z,84.69
2022-11-27T01:17:13.647Z,83.76
2022-11-27T01:19:40.037Z,84.06
2022-11-27T01:22:06.505Z,83.87
2022-11-27T01:24:32.931Z,83.96
2022-11-27T01:26:59.379Z,83.83
2022-11-27T01:29:25.857Z,83.81
2022-11-27T01:31:52.482Z,84.19
2022-11-27T01:34:18.987Z,83.80
2022-11-27T01:36:45.531Z,83.68
2022-11-27T01:39:18.644Z,84.50
2022-11-27T01:41:45.284Z,83.83
2022-11-27T01:44:24.112Z,83.71
2022-11-27T01:46:50.597Z,83.74
2022-11-27T01:49:30.873Z,84.32
2022-11-27T01:52:16.927Z,84.09
2022-11-27T01:54:55.100Z,84.62
2022-11-27T01:57:22.746Z,83.81
2022-11-27T01:59:49.292Z,83.98
2022-11-27T02:02:15.875Z,83.86
2022-11-27T02:04:42.661Z,84.22
2022-11-27T02:07:09.581Z,84.06
2022-11-27T02:09:36.252Z,84.55
2022-11-27T02:12:02.852Z,84.29
2022-11-27T02:14:37.658Z,83.75
2022-11-27T02:17:19.588Z,84.52
2022-11-27T02:20:04.658Z,83.93
2022-11-27T02:22:50.033Z,84.10
2022-11-27T02:25:25.257Z,83.88
2022-11-27T02:27:54.459Z,84.10
2022-11-27T02:30:21.114Z,84.41
2022-11-27T02:32:51.712Z,84.07
2022-11-27T02:35:19.339Z,84.15
2022-11-27T02:37:47.040Z,84.51
2022-11-27T02:40:14.462Z,84.63
2022-11-27T02:42:45.287Z,84.07
2022-11-27T02:45:13.201Z,84.72
2022-11-27T02:47:40.371Z,84.70
2022-11-27T02:50:10.408Z,84.55
2022-11-27T02:52:36.828Z,84.91
2022-11-27T02:55:04.289Z,84.50
2022-11-27T02:57:30.696Z,84.47
2022-11-27T02:59:57.251Z,85.15
2022-11-27T03:02:27.005Z,84.79
2022-11-27T03:04:54.757Z,84.85
2022-11-27T03:07:26.954Z,85.05
2022-11-27T03:09:53.931Z,84.42
2022-11-27T03:12:20.487Z,84.62
2022-11-27T03:14:46.978Z,85.10
2022-11-27T03:17:19.748Z,84.59
2022-11-27T03:19:48.831Z,85.38
2022-11-27T03:22:16.427Z,85.03
2022-11-27T03:24:43.298Z,85.00
2022-11-27T03:27:10.240Z,85.40
2022-11-27T03:29:40.878Z,84.91
2022-11-27T03:32:07.303Z,84.96
2022-11-27T03:34:33.785Z,85.44
2022-11-27T03:37:00.559Z,85.05
2022-11-27T03:39:48.965Z,84.96
2022-11-27T03:42:33.813Z,84.88
2022-11-27T03:45:08.022Z,85.12
2022-11-27T03:47:53.482Z,84.86
2022-11-27T03:50:20.069Z,84.80
2022-11-27T03:52:49.509Z,85.01
2022-11-27T03:55:17.684Z,84.89
2022-11-27T03:57:53.952Z,85.12
2022-11-27T04:00:20.559Z,85.04
2022-11-27T04:02:47.841Z,85.37
2022-11-27T04:05:14.720Z,84.83
2022-11-27T04:07:41.339Z,84.83
2022-11-27T04:10:08.120Z,85.43
2022-11-27T04:12:34.539Z,85.11
2022-11-27T04:15:00.977Z,84.97
2022-11-27T04:17:27.467Z,84.79
2022-11-27T04:19:54.031Z,84.59
2022-11-27T04:22:20.566Z,84.64
2022-11-27T04:24:46.976Z,84.78
2022-11-27T04:27:13.460Z,84.65
2022-11-27T04:29:39.952Z,84.77
2022-11-27T04:32:06.448Z,84.90
2022-11-27T04:34:33.130Z,84.29
2022-11-27T04:36:59.598Z,84.25
2022-11-27T04:39:26.217Z,84.14
2022-11-27T04:41:57.798Z,84.14
2022-11-27T04:44:24.395Z,84.34
2022-11-27T04:46:50.919Z,84.19
2022-11-27T04:49:17.503Z,84.33
2022-11-27T04:51:44.132Z,83.87
2022-11-27T04:54:10.769Z,83.80
2022-11-27T04:56:37.409Z,83.83
2022-11-27T04:59:04.180Z,84.31
2022-11-27T05:01:30.605Z,84.01
2022-11-27T05:03:57.034Z,84.09
2022-11-27T05:06:23.608Z,83.98
2022-11-27T05:08:50.046Z,83.89
2022-11-27T05:11:16.733Z,84.04
2022-11-27T05:13:43.362Z,84.61
2022-11-27T05:16:09.916Z,83.95
2022-11-27T05:18:36.422Z,83.80
2022-11-27T05:21:03.886Z,84.53
2022-11-27T05:23:30.627Z,84.11
2022-11-27T05:25:57.165Z,83.81
2022-11-27T05:28:26.849Z,84.31
2022-11-27T05:30:53.601Z,84.37
2022-11-27T05:33:20.027Z,83.77
2022-11-27T05:35:46.475Z,84.03
2022-11-27T05:38:12.925Z,83.93
2022-11-27T05:40:39.454Z,84.12
2022-11-27T05:43:05.851Z,84.46
2022-11-27T05:45:32.432Z,84.18
2022-11-27T05:47:59.063Z,84.41
2022-11-27T05:50:25.473Z,83.74
2022-11-27T05:52:51.895Z,84.46
2022-11-27T05:55:18.334Z,84.37
2022-11-27T05:57:44.787Z,83.67
2022-11-27T06:00:11.547Z,84.27
2022-11-27T06:02:38.133Z,84.20
2022-11-27T06:05:04.730Z,84.02
2022-11-27T06:07:31.401Z,83.96
2022-11-27T06:09:58.051Z,84.48
2022-11-27T06:12:24.492Z,84.00
2022-11-27T06:14:50.944Z,83.94
2022-11-27T06:17:17.410Z,83.88
2022-11-27T06:19:43.904Z,84.00
2022-11-27T06:22:10.381Z,83.88
2022-11-27T06:24:36.839Z,83.81
2022-11-27T06:27:03.316Z,84.53
2022-11-27T06:29:29.806Z,83.64
2022-11-27T06:31:56.373Z,83.40
2022-11-27T06:34:23.292Z,83.10
2022-11-27T06:36:50.893Z,83.48
2022-11-27T06:39:17.639Z,83.37
2022-11-27T06:41:44.035Z,82.78
2022-11-27T06:44:11.009Z,83.53
2022-11-27T06:46:37.474Z,83.35
2022-11-27T06:49:03.896Z,83.46
2022-11-27T06:51:52.701Z,83.61
2022-11-27T06:54:19.117Z,83.94
2022-11-27T06:56:45.655Z,83.97
2022-11-27T06:59:12.916Z,83.84
2022-11-27T07:01:39.420Z,84.60
2022-11-27T07:04:06.044Z,84.52
2022-11-27T07:06:32.589Z,85.18
2022-11-27T07:08:59.225Z,84.87
2022-11-27T07:11:26.504Z,84.97
2022-11-27T07:13:54.265Z,85.40
2022-11-27T07:16:20.795Z,84.55
2022-11-27T07:18:48.584Z,85.08
2022-11-27T07:21:15.170Z,84.75
2022-11-27T07:23:41.585Z,84.97
2022-11-27T07:26:15.113Z,85.13
2022-11-27T07:28:43.836Z,84.90
2022-11-27T07:31:10.982Z,85.10
2022-11-27T07:33:37.486Z,84.75
2022-11-27T07:36:08.140Z,85.02
2022-11-27T07:38:34.613Z,84.45
2022-11-27T07:41:01.691Z,85.10
2022-11-27T07:43:28.563Z,85.04
2022-11-27T07:45:55.124Z,84.64
2022-11-27T07:48:21.713Z,84.71
2022-11-27T07:50:48.129Z,84.30
2022-11-27T07:53:14.540Z,84.53
2022-11-27T07:55:41.134Z,84.30
2022-11-27T07:58:07.897Z,84.66
2022-11-27T08:00:34.523Z,84.26
2022-11-27T08:03:01.188Z,84.40
2022-11-27T08:05:27.690Z,83.99
2022-11-27T08:07:54.162Z,83.68
2022-11-27T08:10:20.698Z,83.67
2022-11-27T08:12:47.307Z,82.78
2022-11-27T08:15:13.713Z,82.66
2022-11-27T08:17:40.284Z,82.49
2022-11-27T08:20:07.256Z,82.06
2022-11-27T08:22:33.869Z,81.75
2022-11-27T08:25:00.302Z,81.21
2022-11-27T08:27:26.758Z,80.63
2022-11-27T08:29:53.351Z,81.08
2022-11-27T08:32:19.809Z,80.75
2022-11-27T08:34:46.216Z,80.75
2022-11-27T08:37:12.626Z,80.53
2022-11-27T08:39:39.141Z,80.08
2022-11-27T08:42:05.626Z,78.13
2022-11-27T08:44:32.027Z,77.68
2022-11-27T08:46:58.459Z,77.66
2022-11-27T08:49:24.967Z,77.75
2022-11-27T08:51:51.441Z,77.53
2022-11-27T08:54:17.918Z,76.76
2022-11-27T08:56:44.489Z,76.55
2022-11-27T08:59:11.141Z,76.37
2022-11-27T09:01:37.624Z,75.54
2022-11-27T09:04:04.237Z,75.48
2022-11-27T09:06:31.392Z,74.60
2022-11-27T09:09:01.040Z,72.39
2022-11-27T09:11:27.997Z,71.74
2022-11-27T09:13:54.478Z,72.26
2022-11-27T09:16:21.582Z,71.47
2022-11-27T09:18:48.478Z,71.68
2022-11-27T09:21:15.211Z,71.31
2022-11-27T09:23:41.682Z,71.39
2022-11-27T09:26:12.103Z,71.38
2022-11-27T09:28:38.686Z,71.39
2022-11-27T09:31:05.598Z,72.02
2022-11-27T09:33:33.907Z,72.23
2022-11-27T09:36:30.130Z,72.20
2022-11-27T09:38:58.078Z,72.53
2022-11-27T09:41:39.653Z,72.77
2022-11-27T09:44:25.023Z,73.16
2022-11-27T09:46:51.683Z,73.39
2022-11-27T09:49:20.069Z,73.43
2022-11-27T09:52:00.314Z,74.27
2022-11-27T09:54:29.773Z,74.40
2022-11-27T09:56:56.423Z,74.09
2022-11-27T09:59:24.068Z,72.86
2022-11-27T10:01:51.209Z,71.92
2022-11-27T10:04:18.414Z,70.60
2022-11-27T10:06:51.289Z,70.60
2022-11-27T10:09:50.162Z,70.36
2022-11-27T10:12:16.563Z,71.24
2022-11-27T10:14:43.158Z,71.92
2022-11-27T10:17:13.147Z,72.65
2022-11-27T10:19:51.854Z,72.93
2022-11-27T10:22:38.692Z,72.49
2022-11-27T10:25:08.184Z,72.99
2022-11-27T10:27:45.348Z,73.15
2022-11-27T10:30:15.667Z,73.15
2022-11-27T10:32:57.576Z,73.55
2022-11-27T10:35:28.120Z,73.74
2022-11-27T10:37:54.554Z,73.40
2022-11-27T10:40:27.165Z,73.02
2022-11-27T10:43:08.944Z,72.68
2022-11-27T10:45:35.392Z,72.59
2022-11-27T10:48:01.832Z,72.73
2022-11-27T10:50:28.342Z,72.57
2022-11-27T10:52:55.961Z,72.87
2022-11-27T10:55:28.785Z,72.59
2022-11-27T10:58:02.744Z,72.84
2022-11-27T11:00:29.167Z,71.75
2022-11-27T11:02:59.573Z,72.21
2022-11-27T11:05:45.464Z,72.63
2022-11-27T11:08:16.510Z,72.15
2022-11-27T11:10:44.157Z,71.57
2022-11-27T11:13:10.558Z,71.54
2022-11-27T11:15:56.385Z,71.08
2022-11-27T11:18:25.857Z,69.36
2022-11-27T11:21:02.892Z,69.51
2022-11-27T11:23:31.057Z,69.77
2022-11-27T11:25:59.194Z,69.71
2022-11-27T11:28:25.691Z,69.47
2022-11-27T11:31:00.900Z,69.84
2022-11-27T11:33:27.583Z,68.10
2022-11-27T11:35:54.761Z,68.03
2022-11-27T11:38:24.068Z,68.39
2022-11-27T11:40:58.379Z,68.31
2022-11-27T11:43:37.331Z,68.04
2022-11-27T11:46:08.556Z,68.54
2022-11-27T11:48:35.734Z,69.14
2022-11-27T11:51:08.357Z,69.27
2022-11-27T11:53:35.974Z,68.77
2022-11-27T11:56:05.511Z,68.29
2022-11-27T11:58:31.988Z,69.18
2022-11-27T12:01:30.854Z,68.97
2022-11-27T12:04:03.504Z,69.20
2022-11-27T12:06:35.943Z,68.04
2022-11-27T12:09:11.550Z,68.33
2022-11-27T12:11:56.862Z,69.24
2022-11-27T12:14:26.986Z,68.73
2022-11-27T12:17:04.570Z,68.80
2022-11-27T12:19:35.143Z,68.48
2022-11-27T12:22:01.577Z,68.85
2022-11-27T12:24:46.337Z,68.54
2022-11-27T12:27:21.289Z,69.48
2022-11-27T12:29:53.555Z,69.67
2022-11-27T12:32:22.973Z,69.70
2022-11-27T12:34:52.778Z,70.15
2022-11-27T12:37:32.119Z,70.40
2022-11-27T12:40:18.932Z,70.61
2022-11-27T12:42:49.264Z,70.88
2022-11-27T12:45:17.989Z,70.58
2022-11-27T12:47:46.882Z,70.68
2022-11-27T12:50:13.368Z,70.96
2022-11-27T12:52:40.823Z,70.64
2022-11-27T12:55:12.428Z,71.20
2022-11-27T12:57:38.963Z,71.42
2022-11-27T13:00:06.504Z,71.35
2022-11-27T13:02:35.109Z,71.43
2022-11-27T13:05:02.890Z,71.59
2022-11-27T13:07:29.301Z,70.47
2022-11-27T13:10:12.911Z,70.00
2022-11-27T13:12:42.382Z,69.34
2022-11-27T13:15:15.528Z,68.92
2022-11-27T13:17:42.671Z,69.74
2022-11-27T13:20:14.531Z,69.67
2022-11-27T13:22:41.025Z,68.82
2022-11-27T13:25:11.103Z,68.97
2022-11-27T13:27:37.757Z,69.65
2022-11-27T13:30:05.563Z,69.75
2022-11-27T13:32:33.468Z,69.92
2022-11-27T13:35:00.531Z,70.19
2022-11-27T13:37:27.207Z,70.39
2022-11-27T13:40:04.367Z,70.13
2022-11-27T13:42:30.924Z,70.23
2022-11-27T13:44:58.829Z,70.49
2022-11-27T13:47:25.705Z,70.63
2022-11-27T13:50:03.309Z,71.26
2022-11-27T13:52:30.264Z,71.26
2022-11-27T13:54:57.448Z,71.57
2022-11-27T13:57:24.164Z,71.12
2022-11-27T13:59:57.850Z,71.48
2022-11-27T14:02:24.541Z,71.20
2022-11-27T14:04:55.863Z,71.04
2022-11-27T14:07:23.044Z,70.20
2022-11-27T14:09:53.000Z,70.74
2022-11-27T14:12:26.918Z,70.68
2022-11-27T14:15:16.345Z,70.38
2022-11-27T14:17:43.417Z,70.58
2022-11-27T14:20:10.048Z,69.02
2022-11-27T14:23:10.972Z,69.40
2022-11-27T14:25:38.058Z,69.06
2022-11-27T14:28:04.568Z,68.20
2022-11-27T14:30:32.490Z,67.19
2022-11-27T14:32:59.213Z,67.44
2022-11-27T14:35:26.272Z,67.97
2022-11-27T14:37:52.831Z,67.74
2022-11-27T14:40:24.131Z,67.80
2022-11-27T14:42:50.627Z,68.30
2022-11-27T14:45:21.288Z,68.43
2022-11-27T14:47:52.526Z,68.77
2022-11-27T14:50:19.180Z,68.24
2022-11-27T14:52:47.159Z,67.97
2022-11-27T14:55:16.686Z,67.93
2022-11-27T14:57:43.411Z,66.24
2022-11-27T15:00:16.112Z,67.46
2022-11-27T15:02:42.769Z,67.49
2022-11-27T15:05:25.669Z,66.88
2022-11-27T15:07:53.291Z,66.18
2022-11-27T15:10:30.783Z,66.42
2022-11-27T15:12:57.401Z,66.28
2022-11-27T15:15:24.429Z,66.07
2022-11-27T15:17:51.948Z,66.05
2022-11-27T15:20:22.082Z,66.43
2022-11-27T15:22:49.620Z,66.95
2022-11-27T15:25:28.105Z,67.19
2022-11-27T15:27:54.780Z,66.69
2022-11-27T15:30:21.480Z,67.45
2022-11-27T15:32:51.754Z,67.68
2022-11-27T15:35:22.473Z,68.25
2022-11-27T15:37:48.928Z,68.52
2022-11-27T15:40:28.052Z,68.53
2022-11-27T15:42:54.540Z,70.20
2022-11-27T15:45:20.962Z,70.05
2022-11-27T15:47:47.406Z,71.61
2022-11-27T15:50:14.903Z,72.42
2022-11-27T15:52:41.572Z,73.96
2022-11-27T15:55:08.474Z,74.05
2022-11-27T15:57:34.906Z,73.77
2022-11-27T16:00:01.330Z,74.95
2022-11-27T16:02:30.441Z,74.08
2022-11-27T16:04:57.075Z,73.75
2022-11-27T16:07:23.577Z,73.81
2022-11-27T16:09:50.221Z,74.58
2022-11-27T16:12:16.880Z,74.84
2022-11-27T16:14:43.572Z,74.16
2022-11-27T16:17:10.238Z,73.66
2022-11-27T16:19:37.028Z,73.41
2022-11-27T16:22:03.643Z,73.72
2022-11-27T16:24:30.215Z,74.70
2022-11-27T16:26:56.628Z,75.33
2022-11-27T16:29:23.080Z,75.28
2022-11-27T16:31:49.867Z,74.87
2022-11-27T16:34:16.506Z,75.00
2022-11-27T16:36:45.982Z,74.87
2022-11-27T16:39:12.438Z,75.05
2022-11-27T16:41:39.932Z,75.08
2022-11-27T16:44:10.305Z,75.05
2022-11-27T16:46:39.087Z,74.48
2022-11-27T16:49:06.756Z,75.85
2022-11-27T16:51:33.948Z,76.80
2022-11-27T16:54:01.556Z,77.38
2022-11-27T16:56:28.545Z,77.50
2022-11-27T16:59:00.908Z,77.59
2022-11-27T17:01:30.291Z,77.43
2022-11-27T17:03:56.752Z,77.22
2022-11-27T17:06:25.652Z,77.30
2022-11-27T17:08:53.360Z,76.57
2022-11-27T17:11:20.916Z,76.66
2022-11-27T17:13:47.785Z,76.78
2022-11-27T17:16:14.395Z,76.36
2022-11-27T17:18:41.127Z,76.63
2022-11-27T17:21:11.985Z,76.90
2022-11-27T17:23:38.463Z,77.09
2022-11-27T17:26:08.487Z,77.40
2022-11-27T17:28:35.131Z,77.49
2022-11-27T17:31:01.668Z,77.63
2022-11-27T17:33:28.467Z,77.75
2022-11-27T17:35:54.996Z,78.13
2022-11-27T17:38:21.426Z,78.06
2022-11-27T17:40:48.383Z,78.41
2022-11-27T17:43:14.804Z,78.52
2022-11-27T17:45:41.690Z,78.75
2022-11-27T17:48:08.151Z,78.44
2022-11-27T17:50:34.711Z,78.56
2022-11-27T17:53:01.584Z,78.87
2022-11-27T17:55:28.025Z,78.67
2022-11-27T17:57:54.853Z,78.84
2022-11-27T18:00:21.325Z,78.38
2022-11-27T18:02:47.929Z,78.24
2022-11-27T18:05:14.524Z,77.79
2022-11-27T18:07:41.079Z,77.76
2022-11-27T18:10:08.260Z,77.82
2022-11-27T18:12:34.902Z,78.00
2022-11-27T18:15:01.660Z,78.19
2022-11-27T18:17:28.648Z,79.08
2022-11-27T18:19:57.187Z,79.02
2022-11-27T18:22:24.308Z,79.34
2022-11-27T18:24:50.727Z,79.25
2022-11-27T18:27:17.928Z,78.92
2022-11-27T18:29:45.248Z,79.31
2022-11-27T18:32:12.186Z,79.12
2022-11-27T18:34:38.865Z,79.33
2022-11-27T18:37:05.430Z,79.04
2022-11-27T18:39:32.111Z,78.88
2022-11-27T18:41:58.760Z,78.99
2022-11-27T18:44:57.338Z,79.26
2022-11-27T18:47:23.792Z,79.15
2022-11-27T18:49:50.310Z,78.89
2022-11-27T18:52:16.812Z,78.89
2022-11-27T18:54:44.222Z,78.21
2022-11-27T18:57:11.334Z,77.95
2022-11-27T18:59:38.593Z,78.16
2022-11-27T19:02:05.347Z,78.29
2022-11-27T19:04:32.020Z,78.81
2022-11-27T19:06:58.468Z,78.64
2022-11-27T19:09:25.029Z,78.71
2022-11-27T19:11:51.460Z,79.10
2022-11-27T19:14:17.875Z,78.71
2022-11-27T19:16:46.524Z,78.97
2022-11-27T19:19:52.336Z,78.62
2022-11-27T19:22:00.686Z,78.38
2022-11-27T19:24:27.124Z,78.87
2022-11-27T19:26:53.795Z,78.79
2022-11-27T19:29:20.211Z,79.15
2022-11-27T19:31:46.705Z,78.46
2022-11-27T19:34:13.755Z,79.18
2022-11-27T19:36:40.206Z,78.92
2022-11-27T19:39:08.062Z,78.88
2022-11-27T19:41:34.728Z,78.46
2022-11-27T19:44:01.951Z,79.15
2022-11-27T19:46:29.452Z,78.60
2022-11-27T19:48:56.739Z,78.66
2022-11-27T19:51:23.958Z,78.91
2022-11-27T19:53:50.824Z,78.47
2022-11-27T19:56:17.234Z,78.94
2022-11-27T19:58:43.821Z,79.36
2022-11-27T20:01:15.619Z,79.00
2022-11-27T20:03:42.496Z,79.15
2022-11-27T20:06:10.157Z,79.11
2022-11-27T20:08:36.705Z,79.31
2022-11-27T20:11:04.306Z,78.88
2022-11-27T20:13:30.829Z,78.95
2022-11-27T20:15:57.475Z,79.21
2022-11-27T20:18:23.949Z,79.09
2022-11-27T20:20:50.565Z,79.24
2022-11-27T20:23:17.086Z,78.92
2022-11-27T20:25:43.629Z,78.75
2022-11-27T20:28:10.135Z,78.94
2022-11-27T20:30:38.803Z,79.37
2022-11-27T20:33:07.668Z,79.28
2022-11-27T20:35:34.479Z,79.37
2022-11-27T20:38:01.012Z,79.44
2022-11-27T20:40:28.474Z,79.18
2022-11-27T20:42:55.014Z,79.14
2022-11-27T20:45:21.616Z,79.41
2022-11-27T20:47:48.272Z,79.13
2022-11-27T20:50:14.721Z,79.30
2022-11-27T20:52:41.178Z,79.09
2022-11-27T20:55:07.844Z,79.50
2022-11-27T20:57:34.294Z,79.49
2022-11-27T21:00:00.704Z,79.26
2022-11-27T21:02:27.198Z,79.34
2022-11-27T21:04:53.739Z,79.33
2022-11-27T21:07:20.559Z,79.56
2022-11-27T21:09:47.138Z,79.36
2022-11-27T21:12:13.884Z,79.22
2022-11-27T21:14:40.577Z,79.36
2022-11-27T21:17:07.141Z,79.50
2022-11-27T21:19:33.616Z,79.58
2022-11-27T21:22:00.120Z,79.20
2022-11-27T21:24:28.578Z,79.47
2022-11-27T21:26:55.227Z,79.34
2022-11-27T21:29:25.490Z,79.18
2022-11-27T21:31:52.995Z,79.44
2022-11-27T21:34:19.461Z,78.98
2022-11-27T21:36:45.946Z,79.63
2022-11-27T21:39:12.668Z,79.21
2022-11-27T21:41:39.144Z,78.67
2022-11-27T21:44:05.597Z,78.66
2022-11-27T21:46:32.215Z,78.66
2022-11-27T21:48:59.169Z,78.97
2022-11-27T21:51:26.480Z,79.03
2022-11-27T21:53:53.151Z,78.82
2022-11-27T21:56:19.956Z,79.43
2022-11-27T21:58:46.598Z,79.46
2022-11-27T22:01:14.576Z,79.18
2022-11-27T22:03:42.989Z,79.03
2022-11-27T22:06:16.417Z,78.85
2022-11-27T22:08:43.250Z,78.99
2022-11-27T22:11:10.438Z,79.52
2022-11-27T22:13:36.860Z,79.61
2022-11-27T22:16:08.057Z,79.34
2022-11-27T22:18:34.513Z,79.44
2022-11-27T22:21:07.503Z,79.53
2022-11-27T22:23:34.223Z,79.82
2022-11-27T22:26:07.451Z,79.81
2022-11-27T22:28:37.317Z,79.99
2022-11-27T22:31:07.779Z,80.12
2022-11-27T22:33:37.198Z,80.01
2022-11-27T22:36:21.970Z,80.38
2022-11-27T22:38:49.044Z,80.30
2022-11-27T22:41:15.833Z,80.15
2022-11-27T22:43:42.735Z,80.40
2022-11-27T22:46:10.622Z,80.70
2022-11-27T22:48:37.116Z,80.64
2022-11-27T22:51:03.728Z,80.80
2022-11-27T22:53:30.209Z,79.96
2022-11-27T22:55:56.735Z,79.92
2022-11-27T22:58:23.208Z,79.98
2022-11-27T23:00:56.308Z,80.14
2022-11-27T23:03:23.103Z,80.59
2022-11-27T23:06:23.655Z,80.68
2022-11-27T23:08:50.300Z,80.71
2022-11-27T23:11:17.832Z,80.89
2022-11-27T23:13:49.482Z,81.34
2022-11-27T23:16:16.528Z,81.54
2022-11-27T23:18:42.992Z,81.79
2022-11-27T23:21:10.291Z,82.08
2022-11-27T23:23:36.722Z,82.13
2022-11-27T23:26:06.785Z,82.03
2022-11-27T23:28:33.387Z,82.22
2022-11-27T23:31:28.945Z,82.46
2022-11-27T23:33:53.000Z,82.58
2022-11-27T23:36:19.466Z,82.27
2022-11-27T23:38:45.978Z,82.31
2022-11-27T23:41:13.686Z,82.09
2022-11-27T23:43:40.188Z,82.10
2022-11-27T23:46:07.088Z,82.04
2022-11-27T23:48:33.747Z,82.33
2022-11-27T23:51:00.370Z,82.15
2022-11-27T23:53:27.879Z,82.21
2022-11-27T23:55:54.500Z,82.21
2022-11-27T23:58:20.902Z,82.04
